Terminal Aerodrome Forecast
Issued by NWS Brownsville, TX

Home | Current Version | Previous Version | Text Only | Print | Product List | Glossary On
Versions: 1 2 3 4 5 6 7 8 9 10 11 12 13 14 15
000
FTUS44 KBRO 291100
TAFBRO
TAF
KBRO 291133Z 2912/3012 15004KT P6SM SKC
     FM291400 16009KT P6SM FEW030
     FM291800 14012G18KT P6SM FEW050
     FM292100 13014G21KT P6SM SKC
     FM300300 13007KT P6SM SKC=

USA.gov is the U.S. government's official web portal to all federal, state and local government web resources and services.